createdAt,value
2023-04-07T00:00:16.134Z,100367.38
2023-04-07T00:01:11.195Z,100353.44
2023-04-07T00:01:51.510Z,100361.94
2023-04-07T00:02:33.240Z,100328.66
2023-04-07T00:03:13.368Z,100359.84
2023-04-07T00:03:54.291Z,100333.06
2023-04-07T00:04:34.521Z,100351.22
2023-04-07T00:05:15.123Z,100340.31
2023-04-07T00:05:56.246Z,100348.34
2023-04-07T00:06:36.219Z,100337.38
2023-04-07T00:07:16.263Z,100352.38
2023-04-07T00:07:57.581Z,100354.31
2023-04-07T00:08:37.265Z,100356.19
2023-04-07T00:09:18.136Z,100340.13
2023-04-07T00:09:58.240Z,100357.38
2023-04-07T00:10:38.156Z,100355.34
2023-04-07T00:11:18.303Z,100344.16
2023-04-07T00:11:59.135Z,100345.09
2023-04-07T00:12:39.365Z,100335.47
2023-04-07T00:13:19.130Z,100347.59
2023-04-07T00:13:59.246Z,100355.25
2023-04-07T00:14:39.112Z,100343.22
2023-04-07T00:15:19.251Z,100329.63
2023-04-07T00:16:00.205Z,100322.16
2023-04-07T00:16:40.539Z,100302.81
2023-04-07T00:17:21.128Z,100344.72
2023-04-07T00:18:01.314Z,100345.88
2023-04-07T00:18:41.144Z,100349.41
2023-04-07T00:19:21.511Z,100347.19
2023-04-07T00:20:03.099Z,100339.88
2023-04-07T00:20:43.206Z,100311.06
2023-04-07T00:21:23.136Z,100334.88
2023-04-07T00:22:03.526Z,100338.81
2023-04-07T00:22:44.130Z,100317.00
2023-04-07T00:23:24.190Z,100321.19
2023-04-07T00:24:06.097Z,100321.47
2023-04-07T00:24:46.416Z,100328.19
2023-04-07T00:25:26.091Z,100325.22
2023-04-07T00:26:06.284Z,100341.78
2023-04-07T00:26:46.142Z,100334.59
2023-04-07T00:27:26.363Z,100309.53
2023-04-07T00:28:07.142Z,100323.50
2023-04-07T00:28:47.228Z,100325.63
2023-04-07T00:29:27.125Z,100319.19
2023-04-07T00:30:07.183Z,100319.66
2023-04-07T00:30:47.169Z,100328.38
2023-04-07T00:31:27.223Z,100279.59
2023-04-07T00:32:08.092Z,100304.19
2023-04-07T00:32:48.438Z,100297.66
2023-04-07T00:33:28.130Z,100328.47
2023-04-07T00:34:08.188Z,100329.34
2023-04-07T00:34:48.100Z,100308.47
2023-04-07T00:35:29.267Z,100294.91
2023-04-07T00:36:11.159Z,100320.44
2023-04-07T00:36:52.353Z,100319.09
2023-04-07T00:37:32.115Z,100324.28
2023-04-07T00:38:12.174Z,100316.63
2023-04-07T00:38:52.102Z,100331.53
2023-04-07T00:39:32.631Z,100300.94
2023-04-07T00:40:14.093Z,100272.44
2023-04-07T00:40:54.188Z,100268.69
2023-04-07T00:41:34.100Z,100318.69
2023-04-07T00:42:14.227Z,100309.69
2023-04-07T00:42:54.095Z,100319.09
2023-04-07T00:43:34.191Z,100292.31
2023-04-07T00:44:15.087Z,100293.63
2023-04-07T00:44:55.379Z,100316.59
2023-04-07T00:45:35.080Z,100306.84
2023-04-07T00:46:15.252Z,100314.69
2023-04-07T00:46:55.084Z,100307.59
2023-04-07T00:47:35.711Z,100264.50
2023-04-07T00:48:17.071Z,100298.81
2023-04-07T00:48:57.232Z,100267.84
2023-04-07T00:49:38.091Z,100297.09
2023-04-07T00:50:19.176Z,100309.06
2023-04-07T00:50:59.085Z,100283.16
2023-04-07T00:51:40.230Z,100307.13
2023-04-07T00:52:22.097Z,100277.03
2023-04-07T00:53:02.686Z,100281.22
2023-04-07T00:53:43.111Z,100294.34
2023-04-07T00:54:25.381Z,100281.22
2023-04-07T00:55:07.105Z,100274.38
2023-04-07T00:55:47.167Z,100269.00
2023-04-07T00:56:28.115Z,100251.59
2023-04-07T00:57:08.212Z,100295.97
2023-04-07T00:57:48.068Z,100295.09
2023-04-07T00:58:28.183Z,100291.94
2023-04-07T00:59:11.104Z,100259.31
2023-04-07T00:59:51.193Z,100276.63
2023-04-07T01:00:34.116Z,100271.97
2023-04-07T01:01:34.305Z,100291.94
2023-04-07T01:02:26.274Z,100260.69
2023-04-07T01:03:20.734Z,100288.41
2023-04-07T01:04:13.159Z,100264.59
2023-04-07T01:05:23.136Z,100282.28
2023-04-07T01:06:08.110Z,100292.31
2023-04-07T01:06:54.243Z,100277.22
2023-04-07T01:08:10.080Z,100274.38
2023-04-07T01:09:10.569Z,100289.66
2023-04-07T01:10:17.085Z,100273.97
2023-04-07T01:11:22.376Z,100293.00
2023-04-07T01:12:49.504Z,100275.88
2023-04-07T01:13:41.081Z,100298.81
2023-04-07T01:14:16.388Z,100283.25
2023-04-07T01:15:12.061Z,100274.53
2023-04-07T01:15:49.752Z,100266.63
2023-04-07T01:16:46.080Z,100250.66
2023-04-07T01:17:21.584Z,100245.78
2023-04-07T01:18:27.056Z,100290.59
2023-04-07T01:19:29.484Z,100290.22
2023-04-07T01:20:18.064Z,100278.56
2023-04-07T01:20:52.962Z,100248.84
2023-04-07T01:21:42.053Z,100256.75
2023-04-07T01:22:41.064Z,100255.81
2023-04-07T01:23:35.134Z,100253.31
2023-04-07T01:25:00.023Z,100281.97
2023-04-07T01:26:27.184Z,100279.88
2023-04-07T01:27:26.062Z,100262.88
2023-04-07T01:28:17.076Z,100263.63
2023-04-07T01:29:11.193Z,100288.66
2023-04-07T01:29:48.221Z,100258.56
2023-04-07T01:30:30.020Z,100252.72
2023-04-07T01:31:05.113Z,100252.81
2023-04-07T01:31:41.701Z,100232.47
2023-04-07T01:32:25.170Z,100259.78
2023-04-07T01:33:00.430Z,100281.59
2023-04-07T01:33:51.072Z,100273.59
2023-04-07T01:34:25.178Z,100276.22
2023-04-07T01:35:17.045Z,100253.50
2023-04-07T01:35:51.425Z,100269.16
2023-04-07T01:36:40.072Z,100271.25
2023-04-07T01:37:15.157Z,100270.03
2023-04-07T01:38:03.047Z,100221.69
2023-04-07T01:38:37.151Z,100275.78
2023-04-07T01:39:18.064Z,100256.06
2023-04-07T01:39:58.126Z,100222.94
2023-04-07T01:40:41.067Z,100278.53
2023-04-07T01:41:22.124Z,100247.84
2023-04-07T01:42:05.028Z,100253.50
2023-04-07T01:42:46.115Z,100253.78
2023-04-07T01:43:28.054Z,100262.63
2023-04-07T01:44:09.143Z,100256.69
2023-04-07T01:44:50.064Z,100226.13
2023-04-07T01:45:31.248Z,100267.97
2023-04-07T01:46:12.037Z,100254.22
2023-04-07T01:46:52.253Z,100261.56
2023-04-07T01:47:37.112Z,100261.47
2023-04-07T01:48:18.311Z,100260.09
2023-04-07T01:48:59.018Z,100221.13
2023-04-07T01:49:40.152Z,100230.69
2023-04-07T01:50:21.037Z,100225.50
2023-04-07T01:51:02.129Z,100265.88
2023-04-07T01:51:43.029Z,100255.84
2023-04-07T01:52:24.151Z,100266.81
2023-04-07T01:53:05.060Z,100249.28
2023-04-07T01:53:46.228Z,100261.13
2023-04-07T01:54:28.025Z,100244.94
2023-04-07T01:55:09.825Z,100243.31
2023-04-07T01:55:51.046Z,100254.00
2023-04-07T01:56:31.114Z,100233.19
2023-04-07T01:57:12.030Z,100234.91
2023-04-07T01:57:52.094Z,100246.47
2023-04-07T01:58:33.051Z,100225.25
2023-04-07T01:59:13.179Z,100225.25
2023-04-07T01:59:54.047Z,100256.63
2023-04-07T02:00:34.435Z,100232.13
2023-04-07T02:01:14.059Z,100261.97
2023-04-07T02:01:55.367Z,100233.59
2023-04-07T02:02:40.141Z,100232.53
2023-04-07T02:03:27.546Z,100232.25
2023-04-07T02:04:38.035Z,100239.59
2023-04-07T02:05:22.116Z,100210.06
2023-04-07T02:06:10.067Z,100261.19
2023-04-07T02:06:59.048Z,100253.44
2023-04-07T02:07:52.135Z,100244.09
2023-04-07T02:08:40.007Z,100261.56
2023-04-07T02:09:18.103Z,100248.66
2023-04-07T02:10:08.030Z,100214.09
2023-04-07T02:10:44.083Z,100238.50
2023-04-07T02:11:32.064Z,100232.53
2023-04-07T02:12:15.106Z,100215.44
2023-04-07T02:13:10.017Z,100227.47
2023-04-07T02:14:08.019Z,100206.34
2023-04-07T02:15:02.005Z,100238.75
2023-04-07T02:15:57.118Z,100242.19
2023-04-07T02:16:52.051Z,100244.84
2023-04-07T02:17:41.088Z,100236.03
2023-04-07T02:18:16.074Z,100217.38
2023-04-07T02:19:04.008Z,100250.47
2023-04-07T02:19:45.083Z,100252.56
2023-04-07T02:20:25.975Z,100254.09
2023-04-07T02:21:08.834Z,100209.09
2023-04-07T02:21:48.984Z,100226.81
2023-04-07T02:22:29.086Z,100244.81
2023-04-07T02:23:10.032Z,100232.19
2023-04-07T02:23:50.652Z,100214.16
2023-04-07T02:24:30.986Z,100233.59
2023-04-07T02:25:38.152Z,100235.66
2023-04-07T02:26:18.003Z,100246.34
2023-04-07T02:27:00.903Z,100245.03
2023-04-07T02:27:40.968Z,100240.28
2023-04-07T02:28:28.039Z,100252.69
2023-04-07T02:29:02.965Z,100247.00
2023-04-07T02:29:50.022Z,100232.75
2023-04-07T02:30:24.266Z,100238.66
2023-04-07T02:31:11.995Z,100222.66
2023-04-07T02:31:45.894Z,100226.16
2023-04-07T02:32:33.061Z,100226.53
2023-04-07T02:33:06.761Z,100232.13
2023-04-07T02:33:46.993Z,100192.91
2023-04-07T02:34:21.243Z,100228.25
2023-04-07T02:34:56.137Z,100244.88
2023-04-07T02:35:35.970Z,100228.28
2023-04-07T02:36:10.090Z,100216.97
2023-04-07T02:36:43.993Z,100246.66
2023-04-07T02:37:24.003Z,100233.50
2023-04-07T02:37:58.121Z,100246.03
2023-04-07T02:38:32.621Z,100241.53
2023-04-07T02:39:16.004Z,100230.34
2023-04-07T02:39:50.261Z,100248.41
2023-04-07T02:40:23.887Z,100185.63
2023-04-07T02:41:04.974Z,100228.41
2023-04-07T02:41:39.079Z,100252.69
2023-04-07T02:42:12.738Z,100218.00
2023-04-07T02:42:53.983Z,100241.97
2023-04-07T02:43:31.157Z,100227.09
2023-04-07T02:44:04.951Z,100244.09
2023-04-07T02:44:44.997Z,100206.06
2023-04-07T02:45:19.079Z,100240.28
2023-04-07T02:45:52.771Z,100242.91
2023-04-07T02:46:33.089Z,100214.06
2023-04-07T02:47:07.078Z,100243.34
2023-04-07T02:47:40.857Z,100229.38
2023-04-07T02:48:20.958Z,100234.38
2023-04-07T02:48:55.069Z,100248.41
2023-04-07T02:49:28.787Z,100241.03
2023-04-07T02:50:10.019Z,100236.63
2023-04-07T02:50:44.111Z,100238.75
2023-04-07T02:51:18.756Z,100197.88
2023-04-07T02:51:58.989Z,100243.91
2023-04-07T02:52:33.256Z,100243.91
2023-04-07T02:53:06.915Z,100232.81
2023-04-07T02:53:46.968Z,100216.00
2023-04-07T02:54:21.122Z,100221.00
2023-04-07T02:54:54.731Z,100232.28
2023-04-07T02:55:35.950Z,100218.44
2023-04-07T02:56:10.009Z,100238.28
2023-04-07T02:56:43.813Z,100244.50
2023-04-07T02:57:24.989Z,100221.28
2023-04-07T02:57:59.028Z,100222.53
2023-04-07T02:58:32.756Z,100219.66
2023-04-07T02:59:13.967Z,100242.69
2023-04-07T02:59:48.053Z,100215.53
2023-04-07T03:00:21.754Z,100207.16
2023-04-07T03:01:02.006Z,100233.63
2023-04-07T03:01:36.482Z,100215.34
2023-04-07T03:02:10.931Z,100214.31
2023-04-07T03:02:51.039Z,100202.28
2023-04-07T03:03:25.280Z,100213.72
2023-04-07T03:03:59.812Z,100246.78
2023-04-07T03:04:40.978Z,100243.81
2023-04-07T03:05:15.860Z,100229.22
2023-04-07T03:05:49.710Z,100212.00
2023-04-07T03:06:29.970Z,100192.13
2023-04-07T03:07:04.098Z,100192.97
2023-04-07T03:07:37.652Z,100221.34
2023-04-07T03:08:18.925Z,100220.94
2023-04-07T03:08:53.035Z,100255.41
2023-04-07T03:09:26.721Z,100238.38
2023-04-07T03:10:07.985Z,100227.22
2023-04-07T03:10:42.159Z,100242.22
2023-04-07T03:11:15.697Z,100223.09
2023-04-07T03:11:56.950Z,100229.13
2023-04-07T03:12:31.170Z,100229.03
2023-04-07T03:13:04.710Z,100217.53
2023-04-07T03:13:44.947Z,100246.03
2023-04-07T03:14:19.029Z,100240.84
2023-04-07T03:14:52.767Z,100235.31
2023-04-07T03:15:32.926Z,100216.50
2023-04-07T03:16:07.176Z,100247.34
2023-04-07T03:16:40.746Z,100214.47
2023-04-07T03:17:22.023Z,100221.63
2023-04-07T03:17:56.057Z,100239.53
2023-04-07T03:18:29.682Z,100237.38
2023-04-07T03:19:09.947Z,100212.75
2023-04-07T03:19:44.069Z,100224.59
2023-04-07T03:20:20.854Z,100245.97
2023-04-07T03:21:02.951Z,100244.38
2023-04-07T03:21:37.070Z,100219.88
2023-04-07T03:22:10.724Z,100238.91
2023-04-07T03:22:53.974Z,100244.66
2023-04-07T03:23:29.370Z,100211.09
2023-04-07T03:24:04.130Z,100238.44
2023-04-07T03:24:45.916Z,100237.94
2023-04-07T03:25:20.209Z,100218.72
2023-04-07T03:25:53.667Z,100234.78
2023-04-07T03:26:34.961Z,100231.78
2023-04-07T03:27:09.023Z,100187.38
2023-04-07T03:27:43.734Z,100234.63
2023-04-07T03:28:23.934Z,100237.41
2023-04-07T03:28:58.017Z,100228.91
2023-04-07T03:29:31.739Z,100236.03
2023-04-07T03:30:13.969Z,100237.84
2023-04-07T03:30:48.153Z,100240.34
2023-04-07T03:31:21.995Z,100244.28
2023-04-07T03:32:02.932Z,100211.31
2023-04-07T03:32:37.060Z,100233.88
2023-04-07T03:33:11.111Z,100210.22
2023-04-07T03:33:51.063Z,100240.63
2023-04-07T03:34:26.071Z,100232.84
2023-04-07T03:34:59.647Z,100218.31
2023-04-07T03:35:40.951Z,100220.69
2023-04-07T03:36:15.176Z,100236.03
2023-04-07T03:36:48.750Z,100229.75
2023-04-07T03:37:28.918Z,100208.03
2023-04-07T03:38:02.991Z,100237.56
2023-04-07T03:38:36.760Z,100237.00
2023-04-07T03:39:17.915Z,100215.34
2023-04-07T03:39:52.176Z,100202.63
2023-04-07T03:40:25.651Z,100189.16
2023-04-07T03:41:05.957Z,100196.88
2023-04-07T03:41:40.163Z,100186.09
2023-04-07T03:42:13.736Z,100200.50
2023-04-07T03:42:54.922Z,100177.09
2023-04-07T03:43:29.075Z,100221.78
2023-04-07T03:44:02.704Z,100225.41
2023-04-07T03:44:43.960Z,100228.25
2023-04-07T03:45:18.071Z,100230.94
2023-04-07T03:45:54.125Z,100211.84
2023-04-07T03:46:33.995Z,100174.56
2023-04-07T03:47:07.991Z,100187.47
2023-04-07T03:47:42.077Z,100230.03
2023-04-07T03:48:21.916Z,100204.38
2023-04-07T03:48:56.365Z,100194.69
2023-04-07T03:49:31.475Z,100179.34
2023-04-07T03:50:12.906Z,100167.75
2023-04-07T03:50:47.282Z,100217.19
2023-04-07T03:51:22.037Z,100200.19
2023-04-07T03:52:01.936Z,100196.34
2023-04-07T03:52:36.046Z,100235.84
2023-04-07T03:53:09.698Z,100186.31
2023-04-07T03:53:49.993Z,100215.84
2023-04-07T03:54:24.022Z,100233.88
2023-04-07T03:54:57.634Z,100215.41
2023-04-07T03:55:39.948Z,100200.34
2023-04-07T03:56:14.046Z,100218.84
2023-04-07T03:56:47.757Z,100176.03
2023-04-07T03:57:28.879Z,100216.50
2023-04-07T03:58:03.051Z,100208.66
2023-04-07T03:58:36.787Z,100201.81
2023-04-07T03:59:16.877Z,100197.38
2023-04-07T03:59:51.515Z,100228.94
2023-04-07T04:00:26.880Z,100168.19
2023-04-07T04:01:07.921Z,100192.56
2023-04-07T04:01:42.148Z,100202.56
2023-04-07T04:02:15.996Z,100188.19
2023-04-07T04:02:56.998Z,100201.91
2023-04-07T04:03:31.159Z,100213.06
2023-04-07T04:04:06.195Z,100224.66
2023-04-07T04:04:45.962Z,100207.66
2023-04-07T04:05:20.045Z,100185.38
2023-04-07T04:05:53.649Z,100199.63
2023-04-07T04:06:33.915Z,100204.88
2023-04-07T04:07:07.990Z,100221.31
2023-04-07T04:07:42.886Z,100204.84
2023-04-07T04:08:22.913Z,100196.34
2023-04-07T04:08:57.025Z,100201.13
2023-04-07T04:09:31.061Z,100212.25
2023-04-07T04:10:11.923Z,100198.28
2023-04-07T04:10:46.052Z,100228.00
2023-04-07T04:11:19.860Z,100196.16
2023-04-07T04:12:00.916Z,100222.47
2023-04-07T04:12:34.969Z,100221.22
2023-04-07T04:13:08.804Z,100202.13
2023-04-07T04:13:48.867Z,100190.53
2023-04-07T04:14:23.033Z,100208.94
2023-04-07T04:14:56.726Z,100224.59
2023-04-07T04:15:37.969Z,100233.66
2023-04-07T04:16:15.107Z,100229.13
2023-04-07T04:16:49.702Z,100182.81
2023-04-07T04:17:32.027Z,100208.75
2023-04-07T04:18:06.086Z,100224.84
2023-04-07T04:18:39.622Z,100186.94
2023-04-07T04:19:20.864Z,100201.97
2023-04-07T04:19:55.277Z,100224.97
2023-04-07T04:20:29.606Z,100203.88
2023-04-07T04:21:10.875Z,100204.34
2023-04-07T04:21:45.115Z,100193.41
2023-04-07T04:22:18.755Z,100208.75
2023-04-07T04:22:59.907Z,100218.34
2023-04-07T04:23:33.996Z,100213.81
2023-04-07T04:24:07.839Z,100206.31
2023-04-07T04:24:48.869Z,100215.25
2023-04-07T04:25:24.018Z,100203.94
2023-04-07T04:26:00.120Z,100208.44
2023-04-07T04:26:40.874Z,100221.13
2023-04-07T04:27:15.471Z,100194.59
2023-04-07T04:27:49.646Z,100190.44
2023-04-07T04:28:29.912Z,100202.47
2023-04-07T04:29:04.152Z,100229.09
2023-04-07T04:29:37.883Z,100232.47
2023-04-07T04:30:18.882Z,100202.47
2023-04-07T04:30:52.930Z,100225.84
2023-04-07T04:31:26.635Z,100198.03
2023-04-07T04:32:07.870Z,100211.91
2023-04-07T04:32:41.973Z,100208.94
2023-04-07T04:33:15.803Z,100224.84
2023-04-07T04:33:55.858Z,100239.00
2023-04-07T04:34:30.049Z,100230.19
2023-04-07T04:35:05.035Z,100216.63
2023-04-07T04:35:45.878Z,100218.16
2023-04-07T04:36:20.026Z,100216.22
2023-04-07T04:36:53.688Z,100227.59
2023-04-07T04:37:34.849Z,100225.47
2023-04-07T04:38:08.935Z,100234.69
2023-04-07T04:38:42.613Z,100241.47
2023-04-07T04:39:23.881Z,100218.91
2023-04-07T04:39:57.918Z,100224.81
2023-04-07T04:40:31.641Z,100234.84
2023-04-07T04:41:11.904Z,100224.41
2023-04-07T04:41:46.118Z,100229.13
2023-04-07T04:42:19.659Z,100230.66
2023-04-07T04:42:59.841Z,100220.09
2023-04-07T04:43:34.028Z,100202.22
2023-04-07T04:44:07.847Z,100228.47
2023-04-07T04:44:47.895Z,100213.09
2023-04-07T04:45:22.028Z,100202.47
2023-04-07T04:45:56.265Z,100191.97
2023-04-07T04:46:35.834Z,100224.41
2023-04-07T04:47:09.986Z,100238.25
2023-04-07T04:47:44.815Z,100219.25
2023-04-07T04:48:24.855Z,100214.81
2023-04-07T04:48:58.921Z,100213.13
2023-04-07T04:49:32.695Z,100219.22
2023-04-07T04:50:14.865Z,100208.72
2023-04-07T04:50:48.947Z,100200.75
2023-04-07T04:51:22.762Z,100218.09
2023-04-07T04:52:03.842Z,100205.69
2023-04-07T04:52:39.223Z,100200.34
2023-04-07T04:53:13.694Z,100205.13
2023-04-07T04:53:54.201Z,100211.50
2023-04-07T04:54:29.372Z,100203.25
2023-04-07T04:55:03.754Z,100222.09
2023-04-07T04:55:44.877Z,100232.09
2023-04-07T04:56:18.978Z,100233.13
2023-04-07T04:56:52.680Z,100224.69
2023-04-07T04:57:33.872Z,100206.22
2023-04-07T04:58:07.938Z,100203.97
2023-04-07T04:58:46.067Z,100192.56
2023-04-07T04:59:25.817Z,100227.25
2023-04-07T04:59:59.934Z,100203.34
2023-04-07T05:00:33.681Z,100221.16
2023-04-07T05:01:14.927Z,100211.22
2023-04-07T05:01:49.051Z,100191.06
2023-04-07T05:02:22.820Z,100225.66
2023-04-07T05:03:03.959Z,100209.97
2023-04-07T05:03:38.131Z,100234.69
2023-04-07T05:04:13.013Z,100231.91
2023-04-07T05:04:52.886Z,100214.94
2023-04-07T05:05:26.932Z,100235.00
2023-04-07T05:06:00.677Z,100230.59
2023-04-07T05:06:40.918Z,100199.88
2023-04-07T05:07:14.932Z,100230.38
2023-04-07T05:07:49.641Z,100218.59
2023-04-07T05:08:30.836Z,100227.22
2023-04-07T05:09:04.928Z,100212.13
2023-04-07T05:09:38.657Z,100234.03
2023-04-07T05:10:19.885Z,100223.53
2023-04-07T05:10:55.091Z,100225.56
2023-04-07T05:11:28.599Z,100225.81
2023-04-07T05:12:09.836Z,100218.22
2023-04-07T05:12:43.927Z,100207.56
2023-04-07T05:13:17.600Z,100225.78
2023-04-07T05:13:57.833Z,100231.91
2023-04-07T05:14:31.981Z,100228.25
2023-04-07T05:15:06.603Z,100216.41
2023-04-07T05:15:48.920Z,100207.22
2023-04-07T05:16:22.942Z,100216.47
2023-04-07T05:16:56.906Z,100225.72
2023-04-07T05:17:37.916Z,100229.09
2023-04-07T05:18:12.214Z,100221.72
2023-04-07T05:18:46.627Z,100212.16
2023-04-07T05:19:27.805Z,100221.50
2023-04-07T05:20:01.958Z,100227.25
2023-04-07T05:20:35.927Z,100211.19
2023-04-07T05:21:16.822Z,100229.91
2023-04-07T05:21:51.058Z,100199.41
2023-04-07T05:22:24.642Z,100218.09
2023-04-07T05:23:04.869Z,100214.03
2023-04-07T05:23:38.891Z,100213.16
2023-04-07T05:24:12.612Z,100220.75
2023-04-07T05:24:53.129Z,100225.59
2023-04-07T05:25:26.924Z,100220.78
2023-04-07T05:26:01.138Z,100199.31
2023-04-07T05:26:40.835Z,100210.94
2023-04-07T05:27:14.919Z,100182.34
2023-04-07T05:27:48.668Z,100218.56
2023-04-07T05:28:29.881Z,100200.06
2023-04-07T05:29:09.942Z,100204.50
2023-04-07T05:29:43.560Z,100222.44
2023-04-07T05:30:24.829Z,100218.56
2023-04-07T05:30:58.909Z,100220.34
2023-04-07T05:31:35.722Z,100213.06
2023-04-07T05:32:15.795Z,100213.47
2023-04-07T05:32:49.975Z,100214.81
2023-04-07T05:33:23.597Z,100220.50
2023-04-07T05:34:03.840Z,100227.44
2023-04-07T05:34:37.979Z,100215.00
2023-04-07T05:35:14.833Z,100223.78
2023-04-07T05:35:55.844Z,100205.84
2023-04-07T05:36:30.043Z,100226.47
2023-04-07T05:37:03.674Z,100223.78
2023-04-07T05:37:43.787Z,100217.75
2023-04-07T05:38:17.921Z,100196.66
2023-04-07T05:38:52.540Z,100211.63
2023-04-07T05:39:33.811Z,100221.19
2023-04-07T05:40:07.891Z,100221.38
2023-04-07T05:40:42.213Z,100206.38
2023-04-07T05:41:22.884Z,100222.88
2023-04-07T05:41:57.680Z,100219.25
2023-04-07T05:42:31.619Z,100200.56
2023-04-07T05:43:14.323Z,100219.06
2023-04-07T05:43:47.925Z,100208.28
2023-04-07T05:44:21.559Z,100219.88
2023-04-07T05:45:03.044Z,100223.59
2023-04-07T05:45:36.954Z,100215.34
2023-04-07T05:46:10.756Z,100197.50
2023-04-07T05:46:50.804Z,100211.16
2023-04-07T05:47:24.921Z,100207.81
2023-04-07T05:47:58.562Z,100210.72
2023-04-07T05:48:38.826Z,100208.00
2023-04-07T05:49:19.455Z,100206.50
2023-04-07T05:49:53.655Z,100205.88
2023-04-07T05:50:33.912Z,100215.34
2023-04-07T05:51:07.927Z,100215.69
2023-04-07T05:51:41.527Z,100221.53
2023-04-07T05:52:21.774Z,100217.78
2023-04-07T05:52:56.216Z,100210.56
2023-04-07T05:53:30.878Z,100220.97
2023-04-07T05:54:10.774Z,100227.09
2023-04-07T05:54:45.072Z,100223.97
2023-04-07T05:55:19.552Z,100214.66
2023-04-07T05:55:59.771Z,100196.00
2023-04-07T05:56:33.943Z,100209.75
2023-04-07T05:57:08.427Z,100208.22
2023-04-07T05:57:48.785Z,100218.16
2023-04-07T05:58:22.894Z,100217.78
2023-04-07T05:58:58.980Z,100217.34
2023-04-07T05:59:39.991Z,100216.88
2023-04-07T06:00:14.923Z,100206.50
2023-04-07T06:00:48.565Z,100188.38
2023-04-07T06:01:51.885Z,100197.56
2023-04-07T06:02:26.133Z,100197.88
2023-04-07T06:03:01.948Z,100217.28
2023-04-07T06:03:41.822Z,100199.59
2023-04-07T06:04:15.969Z,100207.78
2023-04-07T06:04:49.726Z,100207.88
2023-04-07T06:05:29.814Z,100205.94
2023-04-07T06:06:06.072Z,100215.41
2023-04-07T06:06:39.547Z,100211.13
2023-04-07T06:07:20.825Z,100216.16
2023-04-07T06:07:54.865Z,100209.50
2023-04-07T06:08:28.606Z,100215.81
2023-04-07T06:09:09.818Z,100217.53
2023-04-07T06:09:43.942Z,100201.81
2023-04-07T06:10:18.030Z,100199.13
2023-04-07T06:10:58.797Z,100202.56
2023-04-07T06:11:34.461Z,100211.97
2023-04-07T06:12:09.373Z,100218.41
2023-04-07T06:12:51.784Z,100207.19
2023-04-07T06:13:26.966Z,100209.75
2023-04-07T06:14:01.543Z,100214.41
2023-04-07T06:14:42.800Z,100213.25
2023-04-07T06:15:16.887Z,100223.19
2023-04-07T06:15:50.780Z,100188.50
2023-04-07T06:16:30.806Z,100212.88
2023-04-07T06:17:04.910Z,100203.84
2023-04-07T06:17:38.558Z,100223.13
2023-04-07T06:18:19.838Z,100218.50
2023-04-07T06:18:53.912Z,100203.78
2023-04-07T06:19:30.292Z,100220.50
2023-04-07T06:20:14.892Z,100222.22
2023-04-07T06:20:48.890Z,100213.75
2023-04-07T06:21:29.222Z,100201.72
2023-04-07T06:22:11.766Z,100161.09
2023-04-07T06:22:46.876Z,100218.91
2023-04-07T06:23:27.782Z,100211.59
2023-04-07T06:24:07.881Z,100222.78
2023-04-07T06:24:47.781Z,100214.84
2023-04-07T06:25:28.884Z,100178.97
2023-04-07T06:26:16.974Z,100213.53
2023-04-07T06:27:02.700Z,100215.91
2023-04-07T06:27:43.751Z,100220.31
2023-04-07T06:28:24.803Z,100220.13
2023-04-07T06:29:09.823Z,100219.16
2023-04-07T06:29:51.804Z,100202.41
2023-04-07T06:30:31.781Z,100219.34
2023-04-07T06:31:11.902Z,100201.97
2023-04-07T06:31:51.746Z,100222.28
2023-04-07T06:32:31.908Z,100203.69
2023-04-07T06:33:11.762Z,100223.88
2023-04-07T06:33:53.263Z,100218.06
2023-04-07T06:34:33.775Z,100214.41
2023-04-07T06:35:16.303Z,100206.25
2023-04-07T06:36:04.788Z,100209.47
2023-04-07T06:36:46.012Z,100210.94
2023-04-07T06:37:26.757Z,100219.97
2023-04-07T06:38:08.164Z,100212.03
2023-04-07T06:38:48.743Z,100207.53
2023-04-07T06:39:28.947Z,100184.59
2023-04-07T06:40:08.821Z,100215.16
2023-04-07T06:40:48.873Z,100211.19
2023-04-07T06:41:28.744Z,100212.16
2023-04-07T06:42:09.872Z,100195.88
2023-04-07T06:42:49.727Z,100214.31
2023-04-07T06:43:29.819Z,100212.28
2023-04-07T06:44:09.792Z,100218.25
2023-04-07T06:44:50.037Z,100212.56
2023-04-07T06:45:30.784Z,100216.78
2023-04-07T06:46:11.904Z,100216.06
2023-04-07T06:46:53.744Z,100210.75
2023-04-07T06:47:33.829Z,100212.78
2023-04-07T06:48:13.730Z,100215.38
2023-04-07T06:48:54.183Z,100209.72
2023-04-07T06:49:36.601Z,100200.03
2023-04-07T06:50:20.803Z,100221.97
2023-04-07T06:51:00.765Z,100220.03
2023-04-07T06:51:40.837Z,100220.22
2023-04-07T06:52:20.772Z,100217.53
2023-04-07T06:53:00.943Z,100213.13
2023-04-07T06:53:40.742Z,100223.88
2023-04-07T06:54:21.783Z,100208.94
2023-04-07T06:55:08.719Z,100215.28
2023-04-07T06:55:42.805Z,100223.88
2023-04-07T06:56:22.722Z,100208.00
2023-04-07T06:57:02.890Z,100221.72
2023-04-07T06:57:42.721Z,100225.59
2023-04-07T06:58:27.803Z,100194.47
2023-04-07T06:59:07.920Z,100223.00
2023-04-07T06:59:49.030Z,100222.59
2023-04-07T07:00:37.700Z,100218.72
2023-04-07T07:01:17.829Z,100220.75
2023-04-07T07:01:58.855Z,100225.38
2023-04-07T07:02:40.981Z,100205.69
2023-04-07T07:03:22.014Z,100215.69
2023-04-07T07:04:05.765Z,100219.34
2023-04-07T07:04:45.712Z,100210.34
2023-04-07T07:05:26.082Z,100218.69
2023-04-07T07:06:06.747Z,100222.69
2023-04-07T07:06:49.939Z,100219.34
2023-04-07T07:07:31.748Z,100228.38
2023-04-07T07:08:12.863Z,100223.22
2023-04-07T07:08:52.722Z,100229.13
2023-04-07T07:09:32.853Z,100214.09
2023-04-07T07:10:17.690Z,100223.88
2023-04-07T07:10:58.834Z,100218.84
2023-04-07T07:11:41.802Z,100222.91
2023-04-07T07:12:22.925Z,100214.84
2023-04-07T07:13:03.733Z,100225.94
2023-04-07T07:13:45.042Z,100180.41
2023-04-07T07:14:25.708Z,100209.72
2023-04-07T07:15:06.082Z,100211.00
2023-04-07T07:15:45.718Z,100191.34
2023-04-07T07:16:26.111Z,100218.97
2023-04-07T07:17:05.708Z,100211.00
2023-04-07T07:17:45.876Z,100223.47
2023-04-07T07:18:26.787Z,100230.53
2023-04-07T07:19:06.898Z,100226.88
2023-04-07T07:19:47.711Z,100221.94
2023-04-07T07:20:27.870Z,100226.88
2023-04-07T07:21:09.763Z,100224.75
2023-04-07T07:21:50.187Z,100226.47
2023-04-07T07:22:30.692Z,100222.38
2023-04-07T07:23:10.958Z,100216.16
2023-04-07T07:23:50.734Z,100223.59
2023-04-07T07:24:31.128Z,100222.91
2023-04-07T07:25:11.743Z,100231.22
2023-04-07T07:25:51.832Z,100215.31
2023-04-07T07:26:35.743Z,100224.97
2023-04-07T07:27:15.943Z,100222.28
2023-04-07T07:27:59.684Z,100225.19
2023-04-07T07:28:39.793Z,100224.09
2023-04-07T07:29:19.686Z,100200.69
2023-04-07T07:29:59.879Z,100220.44
2023-04-07T07:30:40.779Z,100229.03